createdAt,value
2019-03-13T00:00:43.981Z,3.17
2019-03-13T00:03:12.022Z,2.93
2019-03-13T00:05:39.947Z,3.30
2019-03-13T00:08:07.682Z,3.60
2019-03-13T00:10:35.726Z,2.30
2019-03-13T00:13:03.352Z,2.47
2019-03-13T00:15:31.030Z,2.73
2019-03-13T00:17:59.586Z,2.40
2019-03-13T00:20:27.851Z,2.60
2019-03-13T00:22:56.173Z,2.30
2019-03-13T00:25:24.094Z,2.47
2019-03-13T00:27:52.325Z,2.37
2019-03-13T00:30:20.417Z,2.50
2019-03-13T00:32:48.642Z,2.77
2019-03-13T00:35:16.666Z,1.90
2019-03-13T00:37:44.602Z,2.37
2019-03-13T00:40:12.922Z,2.00
2019-03-13T00:42:41.294Z,2.20
2019-03-13T00:45:09.376Z,2.13
2019-03-13T00:47:37.113Z,2.30
2019-03-13T00:50:04.769Z,2.70
2019-03-13T00:52:33.058Z,2.83
2019-03-13T00:55:01.070Z,2.73
2019-03-13T00:57:28.806Z,3.00
2019-03-13T00:59:56.981Z,2.70
2019-03-13T01:02:37.037Z,2.60
2019-03-13T01:05:14.421Z,2.70
2019-03-13T01:07:42.669Z,2.90
2019-03-13T01:10:10.610Z,2.63
2019-03-13T01:12:38.622Z,2.40
2019-03-13T01:15:06.817Z,2.47
2019-03-13T01:17:35.161Z,2.20
2019-03-13T01:20:03.162Z,2.17
2019-03-13T01:22:31.441Z,2.00
2019-03-13T01:25:00.135Z,1.87
2019-03-13T01:27:28.197Z,2.00
2019-03-13T01:29:56.658Z,2.07
2019-03-13T01:32:35.738Z,1.90
2019-03-13T01:35:09.135Z,1.87
2019-03-13T01:37:36.781Z,1.70
2019-03-13T01:40:05.308Z,1.70
2019-03-13T01:42:33.526Z,1.83
2019-03-13T01:45:02.094Z,1.70
2019-03-13T01:47:30.072Z,1.57
2019-03-13T01:49:58.321Z,1.30
2019-03-13T01:52:26.362Z,1.87
2019-03-13T01:54:54.369Z,1.90
2019-03-13T01:57:22.313Z,1.90
2019-03-13T01:59:49.990Z,2.00
2019-03-13T02:02:17.958Z,2.00
2019-03-13T02:04:45.672Z,1.90
2019-03-13T02:07:13.719Z,2.13
2019-03-13T02:09:42.102Z,2.00
2019-03-13T02:12:10.106Z,1.40
2019-03-13T02:14:38.381Z,1.53
2019-03-13T02:17:06.945Z,1.67
2019-03-13T02:19:35.253Z,1.40
2019-03-13T02:22:03.591Z,1.70
2019-03-13T02:24:31.245Z,1.53
2019-03-13T02:26:58.901Z,1.70
2019-03-13T02:29:26.881Z,1.73
2019-03-13T02:31:55.162Z,1.30
2019-03-13T02:34:23.438Z,1.80
2019-03-13T02:36:51.091Z,1.73
2019-03-13T02:39:19.501Z,1.60
2019-03-13T02:41:47.865Z,1.40
2019-03-13T02:44:15.538Z,1.40
2019-03-13T02:46:43.523Z,1.10
2019-03-13T02:49:11.429Z,1.43
2019-03-13T02:51:39.737Z,1.40
2019-03-13T02:54:08.205Z,1.40
2019-03-13T02:56:36.245Z,1.10
2019-03-13T02:59:04.159Z,1.30
2019-03-13T03:01:55.419Z,1.20
2019-03-13T03:04:23.353Z,1.23
2019-03-13T03:06:51.718Z,1.20
2019-03-13T03:09:20.023Z,1.10
2019-03-13T03:11:47.979Z,0.90
2019-03-13T03:14:15.641Z,1.00
2019-03-13T03:16:43.525Z,1.13
2019-03-13T03:19:11.870Z,1.07
2019-03-13T03:21:39.585Z,1.10
2019-03-13T03:24:07.902Z,1.10
2019-03-13T03:26:36.153Z,1.10
2019-03-13T03:29:04.675Z,1.70
2019-03-13T03:31:32.650Z,1.40
2019-03-13T03:34:01.057Z,1.10
2019-03-13T03:36:29.469Z,1.20
2019-03-13T03:38:57.390Z,1.30
2019-03-13T03:41:26.004Z,1.27
2019-03-13T03:43:53.920Z,1.30
2019-03-13T03:46:21.923Z,1.07
2019-03-13T03:48:49.994Z,1.00
2019-03-13T03:51:17.913Z,1.83
2019-03-13T03:53:45.899Z,1.33
2019-03-13T03:56:14.129Z,1.20
2019-03-13T03:58:42.480Z,1.20
2019-03-13T04:01:10.124Z,1.20
2019-03-13T04:03:38.618Z,1.23
2019-03-13T04:06:07.077Z,1.63
2019-03-13T04:08:37.841Z,1.30
2019-03-13T04:11:04.563Z,1.10
2019-03-13T04:13:32.667Z,1.30
2019-03-13T04:16:01.198Z,1.10
2019-03-13T04:18:29.265Z,1.57
2019-03-13T04:20:57.916Z,1.47
2019-03-13T04:23:25.693Z,1.40
2019-03-13T04:25:53.353Z,1.50
2019-03-13T04:28:21.623Z,1.10
2019-03-13T04:30:49.544Z,1.43
2019-03-13T04:33:17.544Z,1.50
2019-03-13T04:35:45.289Z,1.37
2019-03-13T04:38:12.985Z,1.07
2019-03-13T04:40:41.185Z,1.23
2019-03-13T04:43:08.884Z,1.40
2019-03-13T04:45:37.473Z,1.90
2019-03-13T04:48:05.134Z,1.30
2019-03-13T04:50:32.846Z,1.37
2019-03-13T04:53:00.889Z,1.90
2019-03-13T04:55:28.937Z,1.63
2019-03-13T04:57:57.305Z,2.10
2019-03-13T05:00:25.525Z,1.67
2019-03-13T05:02:53.950Z,1.53
2019-03-13T05:05:52.890Z,1.67
2019-03-13T05:08:30.865Z,1.53
2019-03-13T05:10:58.938Z,1.10
2019-03-13T05:13:26.646Z,1.40
2019-03-13T05:15:54.838Z,1.50
2019-03-13T05:18:23.185Z,1.53
2019-03-13T05:20:50.847Z,1.60
2019-03-13T05:23:18.770Z,1.60
2019-03-13T05:25:47.043Z,1.47
2019-03-13T05:28:14.989Z,1.40
2019-03-13T05:30:43.041Z,1.27
2019-03-13T05:33:11.329Z,1.30
2019-03-13T05:35:39.278Z,1.60
2019-03-13T05:38:07.277Z,1.70
2019-03-13T05:40:35.662Z,1.60
2019-03-13T05:43:03.309Z,1.63
2019-03-13T05:45:31.514Z,1.60
2019-03-13T05:47:59.709Z,1.57
2019-03-13T05:50:27.709Z,1.63
2019-03-13T05:52:55.379Z,1.57
2019-03-13T05:55:23.122Z,1.40
2019-03-13T05:57:51.090Z,1.60
2019-03-13T06:00:20.223Z,1.60
2019-03-13T06:02:48.196Z,1.80
2019-03-13T06:05:15.828Z,1.63
2019-03-13T06:07:44.017Z,1.60
2019-03-13T06:10:12.046Z,1.53
2019-03-13T06:12:40.119Z,2.70
2019-03-13T06:15:08.372Z,2.37
2019-03-13T06:17:36.741Z,1.70
2019-03-13T06:20:05.246Z,1.80
2019-03-13T06:22:33.813Z,1.70
2019-03-13T06:25:01.542Z,1.97
2019-03-13T06:27:29.609Z,2.00
2019-03-13T06:29:57.269Z,1.40
2019-03-13T06:32:25.492Z,1.90
2019-03-13T06:34:54.081Z,1.47
2019-03-13T06:37:22.450Z,1.97
2019-03-13T06:39:50.123Z,1.97
2019-03-13T06:42:17.790Z,1.80
2019-03-13T06:44:45.532Z,1.50
2019-03-13T06:47:13.653Z,1.70
2019-03-13T06:49:41.629Z,1.77
2019-03-13T06:52:09.569Z,1.93
2019-03-13T06:54:37.510Z,1.60
2019-03-13T06:57:05.521Z,1.97
2019-03-13T07:00:02.083Z,1.47
2019-03-13T07:02:38.637Z,1.87
2019-03-13T07:05:22.225Z,2.20
2019-03-13T07:08:01.938Z,1.20
2019-03-13T07:10:48.750Z,1.70
2019-03-13T07:13:32.537Z,1.93
2019-03-13T07:16:05.337Z,2.27
2019-03-13T07:18:56.926Z,1.50
2019-03-13T07:21:47.612Z,1.97
2019-03-13T07:24:40.258Z,2.40
2019-03-13T07:27:33.545Z,2.00
2019-03-13T07:30:19.143Z,1.60
2019-03-13T07:33:08.730Z,1.43
2019-03-13T07:35:55.828Z,1.60
2019-03-13T07:38:42.604Z,1.40
2019-03-13T07:41:41.677Z,1.90
2019-03-13T07:44:27.017Z,1.70
2019-03-13T07:47:01.788Z,1.67
2019-03-13T07:49:51.336Z,1.70
2019-03-13T07:52:41.189Z,1.40
2019-03-13T07:55:18.213Z,1.73
2019-03-13T07:58:07.799Z,1.77
2019-03-13T08:00:42.884Z,1.93
2019-03-13T08:03:30.051Z,1.53
2019-03-13T08:06:13.177Z,2.10
2019-03-13T08:09:08.939Z,1.73
2019-03-13T08:11:56.018Z,1.20
2019-03-13T08:14:46.066Z,1.77
2019-03-13T08:17:24.798Z,1.30
2019-03-13T08:20:21.228Z,2.00
2019-03-13T08:23:11.617Z,1.67
2019-03-13T08:25:54.010Z,1.60
2019-03-13T08:28:34.793Z,1.63
2019-03-13T08:31:13.600Z,1.30
2019-03-13T08:34:06.748Z,1.80
2019-03-13T08:37:05.426Z,1.97
2019-03-13T08:39:49.108Z,1.40
2019-03-13T08:42:54.687Z,1.40
2019-03-13T08:45:50.717Z,1.60
2019-03-13T08:48:40.158Z,1.10
2019-03-13T08:51:30.039Z,1.50
2019-03-13T08:54:03.764Z,1.27
2019-03-13T08:56:41.570Z,1.23
2019-03-13T08:59:18.411Z,1.40
2019-03-13T09:01:58.873Z,1.37
2019-03-13T09:04:48.777Z,1.50
2019-03-13T09:07:34.366Z,1.00
2019-03-13T09:10:22.633Z,1.37
2019-03-13T09:13:01.451Z,1.50
2019-03-13T09:15:44.464Z,1.53
2019-03-13T09:18:30.413Z,1.30
2019-03-13T09:21:16.114Z,1.27
2019-03-13T09:23:49.540Z,1.20
2019-03-13T09:26:26.113Z,1.73
2019-03-13T09:29:19.677Z,1.50
2019-03-13T09:32:14.657Z,1.30
2019-03-13T09:35:01.392Z,1.53
2019-03-13T09:37:54.614Z,1.83
2019-03-13T09:40:43.531Z,1.23
2019-03-13T09:43:39.747Z,1.33
2019-03-13T09:46:25.357Z,1.17
2019-03-13T09:49:06.348Z,1.77
2019-03-13T09:51:52.189Z,1.30
2019-03-13T09:54:45.274Z,1.30
2019-03-13T09:57:43.390Z,1.53
2019-03-13T10:00:45.722Z,1.33
2019-03-13T10:03:21.115Z,1.20
2019-03-13T10:06:26.353Z,1.20
2019-03-13T10:09:31.440Z,1.33
2019-03-13T10:12:08.217Z,1.23
2019-03-13T10:14:58.050Z,1.33
2019-03-13T10:17:45.194Z,1.80
2019-03-13T10:20:38.033Z,1.20
2019-03-13T10:23:25.083Z,1.70
2019-03-13T10:26:21.508Z,1.40
2019-03-13T10:29:00.193Z,1.50
2019-03-13T10:31:59.601Z,1.33
2019-03-13T10:34:52.664Z,1.53
2019-03-13T10:37:51.917Z,1.30
2019-03-13T10:40:38.029Z,2.33
2019-03-13T10:43:25.075Z,1.30
2019-03-13T10:46:02.667Z,1.40
2019-03-13T10:48:48.479Z,1.50
2019-03-13T10:51:25.738Z,0.90
2019-03-13T10:54:22.391Z,1.20
2019-03-13T10:57:01.098Z,1.60
2019-03-13T10:59:42.097Z,1.30
2019-03-13T11:02:16.383Z,1.50
2019-03-13T11:05:18.501Z,1.40
2019-03-13T11:08:04.156Z,1.00
2019-03-13T11:10:59.737Z,1.00
2019-03-13T11:13:45.645Z,1.20
2019-03-13T11:16:31.857Z,1.70
2019-03-13T11:19:31.259Z,1.20
2019-03-13T11:22:12.049Z,0.80
2019-03-13T11:25:04.986Z,1.00
2019-03-13T11:27:47.900Z,0.93
2019-03-13T11:30:34.568Z,1.20
2019-03-13T11:33:29.001Z,1.53
2019-03-13T11:36:05.653Z,1.30
2019-03-13T11:38:50.264Z,1.10
2019-03-13T11:41:55.480Z,1.03
2019-03-13T11:44:41.666Z,1.10
2019-03-13T11:47:18.953Z,1.10
2019-03-13T11:49:54.521Z,1.10
2019-03-13T11:52:44.764Z,1.00
2019-03-13T11:55:34.777Z,0.83
2019-03-13T11:58:20.946Z,0.70
2019-03-13T12:01:17.414Z,1.00
2019-03-13T12:04:03.408Z,0.87
2019-03-13T12:07:00.036Z,0.90
2019-03-13T12:09:47.024Z,0.90
2019-03-13T12:12:32.661Z,0.70
2019-03-13T12:15:22.668Z,0.60
2019-03-13T12:18:10.758Z,0.70
2019-03-13T12:21:03.594Z,0.90
2019-03-13T12:23:49.251Z,0.87
2019-03-13T12:26:23.121Z,0.80
2019-03-13T12:29:26.106Z,0.80
2019-03-13T12:32:11.636Z,0.70
2019-03-13T12:34:57.606Z,0.60
2019-03-13T12:37:35.382Z,0.90
2019-03-13T12:40:17.078Z,0.80
2019-03-13T12:43:07.169Z,0.80
2019-03-13T12:45:46.081Z,0.80
2019-03-13T12:48:25.001Z,0.97
2019-03-13T12:51:14.921Z,1.20
2019-03-13T12:53:52.181Z,0.97
2019-03-13T12:56:48.653Z,0.70
2019-03-13T12:59:39.001Z,0.80
2019-03-13T13:02:29.622Z,1.13
2019-03-13T13:05:13.994Z,0.70
2019-03-13T13:08:07.435Z,0.87
2019-03-13T13:11:03.433Z,0.70
2019-03-13T13:13:54.981Z,1.00
2019-03-13T13:16:59.953Z,0.90
2019-03-13T13:19:28.047Z,1.40
2019-03-13T13:21:56.367Z,0.87
2019-03-13T13:24:24.030Z,0.67
2019-03-13T13:26:52.407Z,0.70
2019-03-13T13:29:20.066Z,0.70
2019-03-13T13:31:48.481Z,0.80
2019-03-13T13:34:16.936Z,0.83
2019-03-13T13:36:44.966Z,0.87
2019-03-13T13:39:12.602Z,0.70
2019-03-13T13:41:40.923Z,0.80
2019-03-13T13:44:08.966Z,0.70
2019-03-13T13:46:39.739Z,1.00
2019-03-13T13:49:08.125Z,0.80
2019-03-13T13:51:36.055Z,0.80
2019-03-13T13:54:05.189Z,0.93
2019-03-13T13:56:33.154Z,1.00
2019-03-13T13:59:01.746Z,0.87
2019-03-13T14:01:30.012Z,1.10
2019-03-13T14:03:58.134Z,1.20
2019-03-13T14:06:26.386Z,1.33
2019-03-13T14:08:54.741Z,1.30
2019-03-13T14:11:22.396Z,1.33
2019-03-13T14:13:50.375Z,1.13
2019-03-13T14:16:18.321Z,1.50
2019-03-13T14:18:46.830Z,1.00
2019-03-13T14:21:14.779Z,1.00
2019-03-13T14:23:42.761Z,0.70
2019-03-13T14:26:11.074Z,0.70
2019-03-13T14:28:39.315Z,0.90
2019-03-13T14:31:07.286Z,0.93
2019-03-13T14:33:35.211Z,0.90
2019-03-13T14:36:03.164Z,0.70
2019-03-13T14:38:31.090Z,1.07
2019-03-13T14:40:59.292Z,1.10
2019-03-13T14:43:27.333Z,1.13
2019-03-13T14:45:55.619Z,1.13
2019-03-13T14:48:23.341Z,1.10
2019-03-13T14:50:51.501Z,1.17
2019-03-13T14:53:19.777Z,1.70
2019-03-13T14:55:47.443Z,1.10
2019-03-13T14:58:15.820Z,1.00
2019-03-13T15:00:43.753Z,1.43
2019-03-13T15:03:11.737Z,1.27
2019-03-13T15:05:40.393Z,1.20
2019-03-13T15:08:08.543Z,1.57
2019-03-13T15:10:36.865Z,1.30
2019-03-13T15:13:04.788Z,1.60
2019-03-13T15:15:32.737Z,1.90
2019-03-13T15:18:00.374Z,2.00
2019-03-13T15:20:28.378Z,1.90
2019-03-13T15:22:56.533Z,2.23
2019-03-13T15:25:24.522Z,2.00
2019-03-13T15:27:52.469Z,2.10
2019-03-13T15:30:20.963Z,2.33
2019-03-13T15:32:48.952Z,2.50
2019-03-13T15:35:16.682Z,2.47
2019-03-13T15:37:44.793Z,2.87
2019-03-13T15:40:13.654Z,2.90
2019-03-13T15:42:41.554Z,2.90
2019-03-13T15:45:10.253Z,2.47
2019-03-13T15:47:38.505Z,3.17
2019-03-13T15:50:06.762Z,2.90
2019-03-13T15:52:35.291Z,2.93
2019-03-13T15:55:03.508Z,3.10
2019-03-13T15:57:31.658Z,2.73
2019-03-13T15:59:59.306Z,3.00
2019-03-13T16:02:27.297Z,2.40
2019-03-13T16:04:55.296Z,2.40
2019-03-13T16:07:22.946Z,2.90
2019-03-13T16:09:51.243Z,2.57
2019-03-13T16:12:19.146Z,2.27
2019-03-13T16:14:46.798Z,2.30
2019-03-13T16:17:15.163Z,2.17
2019-03-13T16:19:43.159Z,2.40
2019-03-13T16:22:12.259Z,1.97
2019-03-13T16:24:40.227Z,2.00
2019-03-13T16:27:08.602Z,2.43
2019-03-13T16:29:36.981Z,2.53
2019-03-13T16:32:04.721Z,2.17
2019-03-13T16:34:32.630Z,2.40
2019-03-13T16:37:00.394Z,1.77
2019-03-13T16:39:28.418Z,1.90
2019-03-13T16:41:56.674Z,1.00
2019-03-13T16:44:24.602Z,1.20
2019-03-13T16:46:52.568Z,1.00
2019-03-13T16:49:20.906Z,0.80
2019-03-13T16:51:49.217Z,1.07
2019-03-13T16:54:16.861Z,1.10
2019-03-13T16:56:44.804Z,4.53
2019-03-13T16:59:13.435Z,2.47
2019-03-13T17:01:41.774Z,9.93
2019-03-13T17:04:09.719Z,2.80
2019-03-13T17:06:37.371Z,2.40
2019-03-13T17:09:05.838Z,2.43
2019-03-13T17:11:34.509Z,17.03
2019-03-13T17:14:02.226Z,3.70
2019-03-13T17:16:30.845Z,4.20
2019-03-13T17:18:58.534Z,3.63
2019-03-13T17:21:26.215Z,4.80
2019-03-13T17:23:54.250Z,5.57
2019-03-13T17:26:22.278Z,5.50
2019-03-13T17:28:50.600Z,4.20
2019-03-13T17:31:18.601Z,4.03
2019-03-13T17:33:46.628Z,4.30
2019-03-13T17:36:14.564Z,2.20
2019-03-13T17:38:42.545Z,1.57
2019-03-13T17:41:10.201Z,1.93
2019-03-13T17:43:39.784Z,2.10
2019-03-13T17:46:08.177Z,2.63
2019-03-13T17:48:36.398Z,1.80
2019-03-13T17:51:04.456Z,2.53
2019-03-13T17:53:32.461Z,3.30
2019-03-13T17:56:00.456Z,2.50
2019-03-13T17:58:28.113Z,1.90
2019-03-13T18:00:55.957Z,2.57
2019-03-13T18:03:24.073Z,2.00
2019-03-13T18:05:51.717Z,2.13
2019-03-13T18:08:19.375Z,2.10
2019-03-13T18:10:47.392Z,2.07
2019-03-13T18:13:15.780Z,2.33
2019-03-13T18:15:43.809Z,2.43
2019-03-13T18:18:11.894Z,3.20
2019-03-13T18:20:39.900Z,4.53
2019-03-13T18:23:08.481Z,2.83
2019-03-13T18:25:36.133Z,2.83
2019-03-13T18:28:03.812Z,3.33
2019-03-13T18:30:31.870Z,3.60
2019-03-13T18:32:59.533Z,4.07
2019-03-13T18:35:28.325Z,4.30
2019-03-13T18:37:56.760Z,4.10
2019-03-13T18:40:24.745Z,4.13
2019-03-13T18:42:52.673Z,4.93
2019-03-13T18:45:21.329Z,4.40
2019-03-13T18:47:49.294Z,4.43
2019-03-13T18:50:17.113Z,3.50
2019-03-13T18:52:44.798Z,4.00
2019-03-13T18:55:13.583Z,4.10
2019-03-13T18:57:42.205Z,3.80
2019-03-13T19:00:12.194Z,4.23
2019-03-13T19:02:40.169Z,5.13
2019-03-13T19:05:09.187Z,4.10
2019-03-13T19:07:37.221Z,4.00
2019-03-13T19:10:05.694Z,4.33
2019-03-13T19:12:33.336Z,3.60
2019-03-13T19:15:00.981Z,4.43
2019-03-13T19:17:28.633Z,5.20
2019-03-13T19:19:57.195Z,3.70
2019-03-13T19:22:25.239Z,5.70
2019-03-13T19:24:52.977Z,3.23
2019-03-13T19:27:20.964Z,3.80
2019-03-13T19:29:49.169Z,3.37
2019-03-13T19:32:17.118Z,3.00
2019-03-13T19:34:44.755Z,3.30
2019-03-13T19:37:12.753Z,2.90
2019-03-13T19:39:40.692Z,2.60
2019-03-13T19:42:08.643Z,2.77
2019-03-13T19:44:36.655Z,2.83
2019-03-13T19:47:05.067Z,2.97
2019-03-13T19:49:32.793Z,2.50
2019-03-13T19:52:01.005Z,2.33
2019-03-13T19:54:28.681Z,2.30
2019-03-13T19:56:56.949Z,2.10
2019-03-13T19:59:24.887Z,1.67
2019-03-13T20:01:52.825Z,2.07
2019-03-13T20:04:20.530Z,1.80
2019-03-13T20:06:48.633Z,2.33
2019-03-13T20:09:16.653Z,2.63
2019-03-13T20:11:44.675Z,2.00
2019-03-13T20:14:13.253Z,2.40
2019-03-13T20:16:41.200Z,3.23
2019-03-13T20:19:09.165Z,2.33
2019-03-13T20:21:37.342Z,2.80
2019-03-13T20:24:05.021Z,2.60
2019-03-13T20:26:33.387Z,2.60
2019-03-13T20:29:01.354Z,2.60
2019-03-13T20:31:29.454Z,3.30
2019-03-13T20:33:57.376Z,3.43
2019-03-13T20:36:25.487Z,2.90
2019-03-13T20:38:53.130Z,3.07
2019-03-13T20:41:21.118Z,3.70
2019-03-13T20:43:49.480Z,3.70
2019-03-13T20:46:17.841Z,3.63
2019-03-13T20:48:45.484Z,3.50
2019-03-13T20:51:13.420Z,3.93
2019-03-13T20:53:41.828Z,3.93
2019-03-13T20:56:09.518Z,3.50
2019-03-13T20:58:37.612Z,3.73
2019-03-13T21:01:05.783Z,3.13
2019-03-13T21:03:34.005Z,3.50
2019-03-13T21:06:02.301Z,3.77
2019-03-13T21:08:30.554Z,3.23
2019-03-13T21:10:58.782Z,3.10
2019-03-13T21:13:26.733Z,3.90
2019-03-13T21:15:54.505Z,3.53
2019-03-13T21:18:22.715Z,3.83
2019-03-13T21:20:50.626Z,3.50
2019-03-13T21:23:19.188Z,3.80
2019-03-13T21:25:47.273Z,3.83
2019-03-13T21:28:15.693Z,2.70
2019-03-13T21:30:43.980Z,2.93
2019-03-13T21:33:11.633Z,3.10
2019-03-13T21:35:40.005Z,2.63
2019-03-13T21:38:08.303Z,3.20
2019-03-13T21:40:36.215Z,2.30
2019-03-13T21:43:04.134Z,2.90
2019-03-13T21:45:40.974Z,2.30
2019-03-13T21:48:02.204Z,2.10
2019-03-13T21:50:29.863Z,2.53
2019-03-13T21:52:58.063Z,2.20
2019-03-13T21:55:27.491Z,2.30
2019-03-13T21:57:56.233Z,2.37
2019-03-13T22:00:24.229Z,2.70
2019-03-13T22:02:52.213Z,2.60
2019-03-13T22:05:25.634Z,2.10
2019-03-13T22:07:49.833Z,3.00
2019-03-13T22:10:18.095Z,3.43
2019-03-13T22:12:46.053Z,2.53
2019-03-13T22:15:14.131Z,3.23
2019-03-13T22:17:41.802Z,3.37
2019-03-13T22:20:11.420Z,3.00
2019-03-13T22:22:39.917Z,3.03
2019-03-13T22:25:08.082Z,2.50
2019-03-13T22:27:36.531Z,3.53
2019-03-13T22:30:04.763Z,3.30
2019-03-13T22:32:33.129Z,3.27
2019-03-13T22:35:01.053Z,2.83
2019-03-13T22:37:29.009Z,3.10
2019-03-13T22:39:57.353Z,2.90
2019-03-13T22:42:25.730Z,2.97
2019-03-13T22:44:54.007Z,3.30
2019-03-13T22:47:21.970Z,2.37
2019-03-13T22:49:49.945Z,2.60
2019-03-13T22:52:18.186Z,2.80
2019-03-13T22:54:46.137Z,3.00
2019-03-13T22:57:13.777Z,2.40
2019-03-13T22:59:41.729Z,2.90
2019-03-13T23:02:09.757Z,2.40
2019-03-13T23:04:37.481Z,2.13
2019-03-13T23:07:05.889Z,2.33
2019-03-13T23:09:33.549Z,2.03
2019-03-13T23:12:01.535Z,2.23
2019-03-13T23:14:29.800Z,1.90
2019-03-13T23:16:57.851Z,1.70
2019-03-13T23:19:25.830Z,2.10
2019-03-13T23:21:53.785Z,1.40
2019-03-13T23:24:22.072Z,1.43
2019-03-13T23:26:50.365Z,1.80
2019-03-13T23:29:18.031Z,1.70
2019-03-13T23:31:46.117Z,1.70
2019-03-13T23:34:14.313Z,1.40
2019-03-13T23:36:41.989Z,1.83
2019-03-13T23:39:09.977Z,1.60
2019-03-13T23:41:37.973Z,1.60
2019-03-13T23:44:05.929Z,1.80
2019-03-13T23:46:34.474Z,1.33
2019-03-13T23:49:02.553Z,1.70
2019-03-13T23:51:30.550Z,1.90
2019-03-13T23:53:58.878Z,1.43
2019-03-13T23:56:26.955Z,1.60
2019-03-13T23:58:55.230Z,1.70
